createdAt,value
2023-04-15T00:00:39.078Z,17.5
2023-04-15T00:01:41.084Z,17.5
2023-04-15T00:02:43.218Z,17.5
2023-04-15T00:03:45.815Z,17.5
2023-04-15T00:04:48.373Z,17.5
2023-04-15T00:05:50.790Z,17.5
2023-04-15T00:06:52.633Z,17.5
2023-04-15T00:07:54.447Z,17.5
2023-04-15T00:08:56.454Z,17.5
2023-04-15T00:09:58.324Z,17.5
2023-04-15T00:11:00.158Z,17.5
2023-04-15T00:12:02.114Z,17.5
2023-04-15T00:13:03.848Z,17.5
2023-04-15T00:14:05.690Z,17.5
2023-04-15T00:15:07.653Z,17.5
2023-04-15T00:16:09.606Z,17.5
2023-04-15T00:17:11.579Z,17.5
2023-04-15T00:18:13.510Z,17.5
2023-04-15T00:19:15.322Z,17.5
2023-04-15T00:20:17.112Z,17.6
2023-04-15T00:21:18.949Z,17.6
2023-04-15T00:22:20.812Z,17.6
2023-04-15T00:23:22.650Z,17.6
2023-04-15T00:24:24.506Z,17.6
2023-04-15T00:25:26.365Z,17.6
2023-04-15T00:26:28.151Z,17.6
2023-04-15T00:27:29.948Z,17.6
2023-04-15T00:28:31.775Z,17.6
2023-04-15T00:29:33.645Z,17.6
2023-04-15T00:30:35.526Z,17.6
2023-04-15T00:31:37.457Z,17.6
2023-04-15T00:32:39.364Z,17.6
2023-04-15T00:33:41.510Z,17.6
2023-04-15T00:34:43.204Z,17.6
2023-04-15T00:35:44.970Z,17.6
2023-04-15T00:36:46.800Z,17.6
2023-04-15T00:37:48.595Z,17.5
2023-04-15T00:38:50.500Z,17.5
2023-04-15T00:39:52.446Z,17.5
2023-04-15T00:40:54.303Z,17.5
2023-04-15T00:41:56.158Z,17.5
2023-04-15T00:42:58.030Z,17.5
2023-04-15T00:43:59.855Z,17.6
2023-04-15T00:45:01.709Z,17.6
2023-04-15T00:46:03.674Z,17.6
2023-04-15T00:47:06.024Z,17.6
2023-04-15T00:48:07.997Z,17.6
2023-04-15T00:49:09.928Z,17.6
2023-04-15T00:50:11.881Z,17.6
2023-04-15T00:51:13.732Z,17.6
2023-04-15T00:52:15.572Z,17.6
2023-04-15T00:53:17.424Z,17.6
2023-04-15T00:54:19.286Z,17.6
2023-04-15T00:55:21.238Z,17.6
2023-04-15T00:56:22.991Z,17.6
2023-04-15T00:57:24.736Z,17.6
2023-04-15T00:58:26.477Z,17.6
2023-04-15T00:59:28.336Z,17.7
2023-04-15T01:00:30.281Z,17.7
2023-04-15T01:02:34.679Z,17.7
2023-04-15T01:03:37.317Z,17.7
2023-04-15T01:04:40.037Z,17.7
2023-04-15T01:05:41.888Z,17.7
2023-04-15T01:06:43.740Z,17.7
2023-04-15T01:07:45.588Z,17.7
2023-04-15T01:08:47.428Z,17.7
2023-04-15T01:09:49.282Z,17.8
2023-04-15T01:10:51.234Z,17.8
2023-04-15T01:11:53.079Z,17.8
2023-04-15T01:12:54.898Z,17.8
2023-04-15T01:13:56.690Z,17.8
2023-04-15T01:14:58.542Z,17.9
2023-04-15T01:16:00.890Z,17.9
2023-04-15T01:17:02.760Z,17.9
2023-04-15T01:18:05.084Z,17.9
2023-04-15T01:19:07.095Z,17.9
2023-04-15T01:20:08.821Z,17.9
2023-04-15T01:21:10.754Z,17.9
2023-04-15T01:22:12.616Z,17.9
2023-04-15T01:23:14.670Z,17.9
2023-04-15T01:24:16.611Z,17.9
2023-04-15T01:25:18.465Z,18
2023-04-15T01:26:20.415Z,17.9
2023-04-15T01:27:22.267Z,18
2023-04-15T01:28:24.225Z,18
2023-04-15T01:29:26.073Z,18
2023-04-15T01:30:27.916Z,18
2023-04-15T01:31:29.910Z,18
2023-04-15T01:32:31.846Z,18
2023-04-15T01:33:34.083Z,18
2023-04-15T01:34:36.270Z,18.1
2023-04-15T01:35:38.072Z,18.1
2023-04-15T01:36:39.845Z,18.1
2023-04-15T01:37:41.611Z,18.1
2023-04-15T01:38:43.543Z,18.1
2023-04-15T01:39:45.271Z,18.1
2023-04-15T01:40:47.132Z,18.1
2023-04-15T01:41:48.986Z,18.1
2023-04-15T01:42:50.835Z,18.1
2023-04-15T01:43:52.899Z,18.1
2023-04-15T01:44:54.747Z,18.1
2023-04-15T01:45:56.601Z,18.1
2023-04-15T01:46:58.697Z,18.1
2023-04-15T01:48:00.963Z,18.1
2023-04-15T01:49:03.330Z,18.1
2023-04-15T01:50:05.355Z,18.1
2023-04-15T01:51:07.276Z,18.1
2023-04-15T01:52:09.125Z,18.1
2023-04-15T01:53:10.986Z,18.1
2023-04-15T01:54:12.936Z,18.2
2023-04-15T01:55:14.791Z,18.2
2023-04-15T01:56:17.261Z,18.1
2023-04-15T01:57:19.106Z,18.1
2023-04-15T01:58:20.855Z,18.2
2023-04-15T01:59:22.795Z,18.2
2023-04-15T02:00:24.660Z,18.2
2023-04-15T02:01:26.766Z,18.2
2023-04-15T02:02:29.021Z,18.2
2023-04-15T02:03:31.441Z,18.2
2023-04-15T02:04:33.679Z,18.1
2023-04-15T02:05:35.454Z,18.1
2023-04-15T02:06:37.224Z,18.1
2023-04-15T02:07:39.134Z,18.2
2023-04-15T02:08:40.963Z,18.2
2023-04-15T02:09:42.840Z,18.2
2023-04-15T02:10:44.693Z,18.2
2023-04-15T02:11:46.534Z,18.2
2023-04-15T02:12:48.493Z,18.2
2023-04-15T02:13:50.367Z,18.2
2023-04-15T02:14:52.298Z,18.2
2023-04-15T02:15:54.248Z,18.2
2023-04-15T02:16:56.017Z,18.2
2023-04-15T02:17:58.162Z,18.2
2023-04-15T02:19:00.692Z,18.2
2023-04-15T02:20:03.391Z,18.2
2023-04-15T02:21:05.265Z,18.2
2023-04-15T02:22:07.091Z,18.2
2023-04-15T02:23:08.838Z,18.2
2023-04-15T02:24:10.679Z,18.2
2023-04-15T02:25:15.104Z,18.2
2023-04-15T02:26:16.959Z,18.2
2023-04-15T02:27:18.764Z,18.2
2023-04-15T02:28:20.754Z,18.2
2023-04-15T02:29:22.598Z,18.2
2023-04-15T02:30:24.379Z,18.2
2023-04-15T02:31:26.208Z,18.2
2023-04-15T02:32:28.237Z,18.3
2023-04-15T02:33:30.198Z,18.3
2023-04-15T02:34:32.150Z,18.3
2023-04-15T02:35:34.105Z,18.3
2023-04-15T02:36:35.987Z,18.3
2023-04-15T02:37:37.812Z,18.3
2023-04-15T02:38:39.635Z,18.3
2023-04-15T02:39:41.404Z,18.3
2023-04-15T02:40:43.256Z,18.3
2023-04-15T02:41:45.100Z,18.3
2023-04-15T02:42:46.961Z,18.3
2023-04-15T02:43:48.803Z,18.3
2023-04-15T02:44:50.666Z,18.3
2023-04-15T02:45:52.749Z,18.3
2023-04-15T02:46:54.875Z,18.3
2023-04-15T02:47:56.834Z,18.4
2023-04-15T02:48:58.981Z,18.3
2023-04-15T02:50:02.061Z,18.3
2023-04-15T02:51:04.004Z,18.3
2023-04-15T02:52:05.878Z,18.3
2023-04-15T02:53:07.718Z,18.3
2023-04-15T02:54:09.654Z,18.4
2023-04-15T02:55:11.414Z,18.4
2023-04-15T02:56:13.250Z,18.4
2023-04-15T02:57:15.103Z,18.4
2023-04-15T02:58:16.932Z,18.4
2023-04-15T02:59:18.811Z,18.4
2023-04-15T03:00:20.664Z,18.4
2023-04-15T03:01:22.615Z,18.4
2023-04-15T03:02:25.044Z,18.4
2023-04-15T03:03:27.402Z,18.4
2023-04-15T03:04:29.493Z,18.5
2023-04-15T03:05:31.341Z,18.4
2023-04-15T03:06:33.390Z,18.5
2023-04-15T03:07:35.374Z,18.5
2023-04-15T03:08:37.286Z,18.4
2023-04-15T03:09:39.149Z,18.4
2023-04-15T03:10:41.108Z,18.4
2023-04-15T03:11:42.953Z,18.4
2023-04-15T03:12:44.809Z,18.4
2023-04-15T03:13:46.745Z,18.4
2023-04-15T03:14:48.711Z,18.4
2023-04-15T03:15:50.829Z,18.4
2023-04-15T03:16:52.811Z,18.4
2023-04-15T03:17:54.884Z,18.4
2023-04-15T03:18:56.825Z,18.4
2023-04-15T03:19:58.777Z,18.4
2023-04-15T03:21:00.723Z,18.4
2023-04-15T03:22:02.679Z,18.4
2023-04-15T03:23:04.453Z,18.4
2023-04-15T03:24:06.379Z,18.4
2023-04-15T03:25:08.235Z,18.3
2023-04-15T03:26:10.180Z,18.3
2023-04-15T03:27:12.006Z,18.3
2023-04-15T03:28:13.688Z,18.3
2023-04-15T03:29:15.521Z,18.4
2023-04-15T03:30:17.270Z,18.3
2023-04-15T03:31:19.292Z,18.3
2023-04-15T03:32:21.408Z,18.3
2023-04-15T03:33:23.348Z,18.3
2023-04-15T03:34:25.289Z,18.3
2023-04-15T03:35:27.068Z,18.3
2023-04-15T03:36:28.865Z,18.3
2023-04-15T03:37:30.742Z,18.3
2023-04-15T03:38:32.619Z,18.3
2023-04-15T03:39:34.332Z,18.3
2023-04-15T03:40:36.184Z,18.3
2023-04-15T03:41:38.136Z,18.3
2023-04-15T03:42:40.005Z,18.3
2023-04-15T03:43:41.732Z,18.3
2023-04-15T03:44:43.483Z,18.3
2023-04-15T03:45:45.243Z,18.3
2023-04-15T03:46:47.209Z,18.3
2023-04-15T03:47:49.710Z,18.3
2023-04-15T03:48:51.700Z,18.3
2023-04-15T03:49:53.655Z,18.3
2023-04-15T03:50:55.410Z,18.3
2023-04-15T03:51:57.363Z,18.3
2023-04-15T03:52:59.307Z,18.3
2023-04-15T03:54:01.179Z,18.3
2023-04-15T03:55:02.987Z,18.3
2023-04-15T03:56:04.871Z,18.3
2023-04-15T03:57:06.714Z,18.4
2023-04-15T03:58:08.567Z,18.3
2023-04-15T03:59:10.412Z,18.4
2023-04-15T04:00:12.260Z,18.4
2023-04-15T04:01:14.111Z,18.4
2023-04-15T04:02:16.106Z,18.4
2023-04-15T04:03:18.848Z,18.4
2023-04-15T04:04:21.767Z,18.4
2023-04-15T04:05:23.964Z,18.4
2023-04-15T04:06:25.823Z,18.4
2023-04-15T04:07:27.673Z,18.4
2023-04-15T04:08:29.520Z,18.4
2023-04-15T04:09:31.395Z,18.4
2023-04-15T04:10:33.323Z,18.4
2023-04-15T04:11:35.069Z,18.4
2023-04-15T04:12:36.816Z,18.4
2023-04-15T04:13:38.784Z,18.4
2023-04-15T04:14:40.718Z,18.4
2023-04-15T04:15:42.520Z,18.4
2023-04-15T04:16:44.564Z,18.4
2023-04-15T04:17:46.580Z,18.4
2023-04-15T04:18:48.739Z,18.4
2023-04-15T04:19:50.590Z,18.5
2023-04-15T04:20:52.410Z,18.5
2023-04-15T04:21:54.227Z,18.3
2023-04-15T04:22:56.015Z,18.4
2023-04-15T04:23:57.987Z,18.4
2023-04-15T04:24:59.952Z,18.6
2023-04-15T04:26:01.789Z,18.6
2023-04-15T04:27:03.750Z,18.8
2023-04-15T04:28:05.618Z,18.9
2023-04-15T04:29:07.537Z,18.9
2023-04-15T04:30:09.280Z,19
2023-04-15T04:31:11.031Z,19
2023-04-15T04:32:13.052Z,18.9
2023-04-15T04:33:14.944Z,18.9
2023-04-15T04:34:17.010Z,18.8
2023-04-15T04:35:18.848Z,18.8
2023-04-15T04:36:20.799Z,18.8
2023-04-15T04:37:22.611Z,18.7
2023-04-15T04:38:24.513Z,18.7
2023-04-15T04:39:26.442Z,18.7
2023-04-15T04:40:28.415Z,18.7
2023-04-15T04:41:30.353Z,18.7
2023-04-15T04:42:31.992Z,18.7
2023-04-15T04:43:33.740Z,18.6
2023-04-15T04:44:35.588Z,18.6
2023-04-15T04:45:37.557Z,18.6
2023-04-15T04:46:39.345Z,18.6
2023-04-15T04:47:41.171Z,18.6
2023-04-15T04:48:43.931Z,18.6
2023-04-15T04:49:48.736Z,18.6
2023-04-15T04:50:50.589Z,18.6
2023-04-15T04:51:52.429Z,18.6
2023-04-15T04:52:54.290Z,18.5
2023-04-15T04:53:56.068Z,18.5
2023-04-15T04:54:57.983Z,18.5
2023-04-15T04:55:59.965Z,18.4
2023-04-15T04:57:01.790Z,18.5
2023-04-15T04:58:03.646Z,18.5
2023-04-15T04:59:05.489Z,18.4
2023-04-15T05:00:07.343Z,18.4
2023-04-15T05:01:09.350Z,18.4
2023-04-15T05:02:11.431Z,18.3
2023-04-15T05:03:13.761Z,18.3
2023-04-15T05:04:16.268Z,18.3
2023-04-15T05:05:18.430Z,18.3
2023-04-15T05:06:20.276Z,18.3
2023-04-15T05:07:22.135Z,18.3
2023-04-15T05:08:23.977Z,18.2
2023-04-15T05:09:25.837Z,18.2
2023-04-15T05:10:27.782Z,18.2
2023-04-15T05:11:29.665Z,18.2
2023-04-15T05:12:31.497Z,18.1
2023-04-15T05:13:33.242Z,18.1
2023-04-15T05:14:34.993Z,18.1
2023-04-15T05:15:36.973Z,18.1
2023-04-15T05:16:38.998Z,18
2023-04-15T05:17:40.974Z,18
2023-04-15T05:18:42.893Z,18
2023-04-15T05:19:44.612Z,17.9
2023-04-15T05:20:46.498Z,17.9
2023-04-15T05:21:48.352Z,17.9
2023-04-15T05:22:50.202Z,17.8
2023-04-15T05:23:52.048Z,17.8
2023-04-15T05:24:53.889Z,17.8
2023-04-15T05:25:55.844Z,17.8
2023-04-15T05:26:57.827Z,17.8
2023-04-15T05:27:59.625Z,17.7
2023-04-15T05:29:02.489Z,17.7
2023-04-15T05:30:04.980Z,17.7
2023-04-15T05:31:06.855Z,17.8
2023-04-15T05:32:08.891Z,17.8
2023-04-15T05:33:10.687Z,17.7
2023-04-15T05:34:12.598Z,17.7
2023-04-15T05:35:14.551Z,17.7
2023-04-15T05:36:16.399Z,17.7
2023-04-15T05:37:18.345Z,17.7
2023-04-15T05:38:20.304Z,17.7
2023-04-15T05:39:22.151Z,17.7
2023-04-15T05:40:23.996Z,17.7
2023-04-15T05:41:25.954Z,17.7
2023-04-15T05:42:27.831Z,17.7
2023-04-15T05:43:29.758Z,17.6
2023-04-15T05:44:31.496Z,17.6
2023-04-15T05:45:33.368Z,17.6
2023-04-15T05:46:35.411Z,17.6
2023-04-15T05:47:37.885Z,17.6
2023-04-15T05:48:39.927Z,17.6
2023-04-15T05:49:41.982Z,17.6
2023-04-15T05:50:43.834Z,17.6
2023-04-15T05:51:45.785Z,17.6
2023-04-15T05:52:47.628Z,17.6
2023-04-15T05:53:49.486Z,17.6
2023-04-15T05:54:51.310Z,17.5
2023-04-15T05:55:53.285Z,17.5
2023-04-15T05:56:55.245Z,17.5
2023-04-15T05:57:57.106Z,17.5
2023-04-15T05:58:58.982Z,17.5
2023-04-15T06:00:01.839Z,17.5
2023-04-15T06:01:03.675Z,17.5
2023-04-15T06:02:05.622Z,17.5
2023-04-15T06:03:07.848Z,17.5
2023-04-15T06:04:10.296Z,17.5
2023-04-15T06:05:12.285Z,17.5
2023-04-15T06:06:14.355Z,17.5
2023-04-15T06:07:16.191Z,17.5
2023-04-15T06:08:18.040Z,17.5
2023-04-15T06:09:20.002Z,17.5
2023-04-15T06:10:22.473Z,17.6
2023-04-15T06:11:24.344Z,17.5
2023-04-15T06:12:26.288Z,17.6
2023-04-15T06:13:28.147Z,17.6
2023-04-15T06:14:29.974Z,17.6
2023-04-15T06:15:31.839Z,17.6
2023-04-15T06:16:33.788Z,17.6
2023-04-15T06:17:35.870Z,17.6
2023-04-15T06:18:37.881Z,17.6
2023-04-15T06:19:39.677Z,17.6
2023-04-15T06:20:41.473Z,17.6
2023-04-15T06:21:43.331Z,17.7
2023-04-15T06:22:45.175Z,17.7
2023-04-15T06:23:47.122Z,17.6
2023-04-15T06:24:48.870Z,17.7
2023-04-15T06:25:50.699Z,17.7
2023-04-15T06:26:52.583Z,17.7
2023-04-15T06:27:54.425Z,17.7
2023-04-15T06:28:56.412Z,17.7
2023-04-15T06:29:58.129Z,17.7
2023-04-15T06:31:00.085Z,17.6
2023-04-15T06:32:01.933Z,17.7
2023-04-15T06:33:03.967Z,17.6
2023-04-15T06:34:06.039Z,17.6
2023-04-15T06:35:07.905Z,17.6
2023-04-15T06:36:09.842Z,17.6
2023-04-15T06:37:11.693Z,17.6
2023-04-15T06:38:13.541Z,17.6
2023-04-15T06:39:15.366Z,17.6
2023-04-15T06:40:17.128Z,17.6
2023-04-15T06:41:19.090Z,17.6
2023-04-15T06:42:20.934Z,17.6
2023-04-15T06:43:22.891Z,17.6
2023-04-15T06:44:24.790Z,17.6
2023-04-15T06:45:26.728Z,17.5
2023-04-15T06:46:28.645Z,17.6
2023-04-15T06:47:30.760Z,17.5
2023-04-15T06:48:32.764Z,17.5
2023-04-15T06:49:34.496Z,17.5
2023-04-15T06:50:36.355Z,17.5
2023-04-15T06:51:38.145Z,17.4
2023-04-15T06:52:39.961Z,17.4
2023-04-15T06:53:41.810Z,17.4
2023-04-15T06:54:43.650Z,17.4
2023-04-15T06:55:45.505Z,17.4
2023-04-15T06:56:47.462Z,17.4
2023-04-15T06:57:49.297Z,17.4
2023-04-15T06:58:51.263Z,17.4
2023-04-15T06:59:53.134Z,17.4
2023-04-15T07:00:54.972Z,17.4
2023-04-15T07:01:56.988Z,17.4
2023-04-15T07:02:58.973Z,17.3
2023-04-15T07:04:00.932Z,17.4
2023-04-15T07:05:02.704Z,17.4
2023-04-15T07:06:04.511Z,17.4
2023-04-15T07:07:06.461Z,17.4
2023-04-15T07:08:08.321Z,17.3
2023-04-15T07:09:10.071Z,17.3
2023-04-15T07:10:11.919Z,17.4
2023-04-15T07:11:13.873Z,17.4
2023-04-15T07:12:15.820Z,17.4
2023-04-15T07:13:17.681Z,17.4
2023-04-15T07:14:19.633Z,17.4
2023-04-15T07:15:21.495Z,17.4
2023-04-15T07:16:23.450Z,17.4
2023-04-15T07:17:25.507Z,17.3
2023-04-15T07:18:27.427Z,17.3
2023-04-15T07:19:29.281Z,17.3
2023-04-15T07:20:31.076Z,17.3
2023-04-15T07:21:32.876Z,17.3
2023-04-15T07:22:34.821Z,17.3
2023-04-15T07:23:36.679Z,17.3
2023-04-15T07:24:38.489Z,17.3
2023-04-15T07:25:40.383Z,17.3
2023-04-15T07:26:42.136Z,17.4
2023-04-15T07:27:44.031Z,17.3
2023-04-15T07:28:45.718Z,17.3
2023-04-15T07:29:47.579Z,17.3
2023-04-15T07:30:49.589Z,17.3
2023-04-15T07:31:51.684Z,17.4
2023-04-15T07:32:53.775Z,17.4
2023-04-15T07:33:55.701Z,17.4
2023-04-15T07:34:57.534Z,17.4
2023-04-15T07:35:59.398Z,17.4
2023-04-15T07:37:01.236Z,17.4
2023-04-15T07:38:03.192Z,17.4
2023-04-15T07:39:04.938Z,17.4
2023-04-15T07:40:06.804Z,17.4
2023-04-15T07:41:08.647Z,17.4
2023-04-15T07:42:10.592Z,17.4
2023-04-15T07:43:12.439Z,17.4
2023-04-15T07:44:14.481Z,17.4
2023-04-15T07:45:16.460Z,17.4
2023-04-15T07:46:18.475Z,17.4
2023-04-15T07:47:20.499Z,17.4
2023-04-15T07:48:22.342Z,17.4
2023-04-15T07:49:24.168Z,17.4
2023-04-15T07:50:26.114Z,17.4
2023-04-15T07:51:27.822Z,17.4
2023-04-15T07:52:29.604Z,17.4
2023-04-15T07:53:31.460Z,17.4
2023-04-15T07:54:33.387Z,17.5
2023-04-15T07:55:35.377Z,17.5
2023-04-15T07:56:37.216Z,17.5
2023-04-15T07:57:39.077Z,17.5
2023-04-15T07:58:41.021Z,17.4
2023-04-15T07:59:42.865Z,17.5
2023-04-15T08:00:44.724Z,17.5
2023-04-15T08:01:46.595Z,17.5
2023-04-15T08:02:48.906Z,17.4
2023-04-15T08:03:51.711Z,17.4
2023-04-15T08:04:54.113Z,17.5
2023-04-15T08:05:56.115Z,17.4
2023-04-15T08:06:57.974Z,17.4
2023-04-15T08:07:59.821Z,17.4
2023-04-15T08:09:02.280Z,17.4
2023-04-15T08:10:04.806Z,17.5
2023-04-15T08:11:06.770Z,17.5
2023-04-15T08:12:08.646Z,17.5
2023-04-15T08:13:10.614Z,17.5
2023-04-15T08:14:12.452Z,17.5
2023-04-15T08:15:14.322Z,17.5
2023-04-15T08:16:16.583Z,17.5
2023-04-15T08:17:18.538Z,17.5
2023-04-15T08:18:20.474Z,17.5
2023-04-15T08:19:22.281Z,17.5
2023-04-15T08:20:24.058Z,17.5
2023-04-15T08:21:25.925Z,17.5
2023-04-15T08:22:27.771Z,17.5
2023-04-15T08:23:29.611Z,17.5
2023-04-15T08:24:31.370Z,17.5
2023-04-15T08:25:33.324Z,17.5
2023-04-15T08:26:35.167Z,17.5
2023-04-15T08:27:37.019Z,17.4
2023-04-15T08:28:38.859Z,17.5
2023-04-15T08:29:40.726Z,17.5
2023-04-15T08:30:42.567Z,17.5
2023-04-15T08:31:44.581Z,17.4
2023-04-15T08:32:46.817Z,17.4
2023-04-15T08:33:49.149Z,17.4
2023-04-15T08:34:50.888Z,17.4
2023-04-15T08:35:52.731Z,17.5
2023-04-15T08:36:54.584Z,17.4
2023-04-15T08:37:56.545Z,17.4
2023-04-15T08:38:58.382Z,17.4
2023-04-15T08:40:00.265Z,17.4
2023-04-15T08:41:02.199Z,17.5
2023-04-15T08:42:04.038Z,17.4
2023-04-15T08:43:05.855Z,17.4
2023-04-15T08:44:07.847Z,17.3
2023-04-15T08:45:09.701Z,17.4
2023-04-15T08:46:11.440Z,17.4
2023-04-15T08:47:13.401Z,17.3
2023-04-15T08:48:15.266Z,17.3
2023-04-15T08:49:17.201Z,17.3
2023-04-15T08:50:19.173Z,17.4
2023-04-15T08:51:23.251Z,17.3
2023-04-15T08:52:26.597Z,17.3
2023-04-15T08:53:28.487Z,17.3
2023-04-15T08:54:30.461Z,17.3
2023-04-15T08:55:32.194Z,17.3
2023-04-15T08:56:34.076Z,17.3
2023-04-15T08:57:35.896Z,17.3
2023-04-15T08:58:37.758Z,17.3
2023-04-15T08:59:39.690Z,17.3
2023-04-15T09:00:41.549Z,17.4
2023-04-15T09:01:43.533Z,17.3
2023-04-15T09:02:45.845Z,17.3
2023-04-15T09:03:48.099Z,17.3
2023-04-15T09:04:50.590Z,17.3
2023-04-15T09:05:53.562Z,17.3
2023-04-15T09:06:55.418Z,17.3
2023-04-15T09:07:57.374Z,17.3
2023-04-15T09:08:59.356Z,17.3
2023-04-15T09:10:01.466Z,17.3
2023-04-15T09:11:03.533Z,17.3
2023-04-15T09:12:05.379Z,17.3
2023-04-15T09:13:07.439Z,17.3
2023-04-15T09:14:09.282Z,17.3
2023-04-15T09:15:11.114Z,17.3
2023-04-15T09:16:13.082Z,17.3
2023-04-15T09:17:14.935Z,17.3
2023-04-15T09:18:17.708Z,17.3
2023-04-15T09:19:19.460Z,17.3
2023-04-15T09:20:21.311Z,17.2
2023-04-15T09:21:23.247Z,17.3
2023-04-15T09:22:25.078Z,17.2
2023-04-15T09:23:26.966Z,17.2
2023-04-15T09:24:28.808Z,17.2
2023-04-15T09:25:34.926Z,17.3
2023-04-15T09:26:37.008Z,17.2
2023-04-15T09:27:38.862Z,17.2
2023-04-15T09:28:40.707Z,17.1
2023-04-15T09:29:42.668Z,17.1
2023-04-15T09:30:44.517Z,17.3
2023-04-15T09:31:46.435Z,17.1
2023-04-15T09:32:48.426Z,17.1
2023-04-15T09:33:50.474Z,17.1
2023-04-15T09:34:52.347Z,17.1
2023-04-15T09:35:54.068Z,17.2
2023-04-15T09:36:55.912Z,17
2023-04-15T09:37:57.865Z,16.9
2023-04-15T09:38:59.723Z,17
2023-04-15T09:40:01.543Z,16.9
2023-04-15T09:41:03.424Z,17.1
2023-04-15T09:42:05.283Z,16.9
2023-04-15T09:43:07.127Z,16.9
2023-04-15T09:44:08.973Z,16.9
2023-04-15T09:45:10.719Z,16.9
2023-04-15T09:46:12.624Z,16.9
2023-04-15T09:47:14.517Z,16.9
2023-04-15T09:48:16.480Z,16.8
2023-04-15T09:49:18.652Z,16.8
2023-04-15T09:50:20.611Z,16.7
2023-04-15T09:51:22.426Z,16.8
2023-04-15T09:52:24.393Z,16.9
2023-04-15T09:53:26.341Z,16.7
2023-04-15T09:54:28.285Z,16.7
2023-04-15T09:55:30.113Z,16.8
2023-04-15T09:56:31.995Z,16.7
2023-04-15T09:57:33.827Z,16.7
2023-04-15T09:58:35.697Z,16.7
2023-04-15T09:59:37.744Z,16.7
2023-04-15T10:00:39.594Z,16.8
2023-04-15T10:01:41.519Z,16.6
2023-04-15T10:02:44.026Z,16.6
2023-04-15T10:03:46.445Z,16.6
2023-04-15T10:04:48.735Z,16.6
2023-04-15T10:05:50.820Z,16.7
2023-04-15T10:06:52.639Z,16.6
2023-04-15T10:07:54.489Z,16.5
2023-04-15T10:08:56.338Z,16.6
2023-04-15T10:09:58.192Z,16.5
2023-04-15T10:11:00.071Z,16.6
2023-04-15T10:12:01.910Z,16.5
2023-04-15T10:13:03.738Z,16.5
2023-04-15T10:14:05.594Z,16.5
2023-04-15T10:15:07.450Z,16.5
2023-04-15T10:16:09.539Z,16.5
2023-04-15T10:17:11.761Z,16.5
2023-04-15T10:18:13.607Z,16.4
2023-04-15T10:19:15.408Z,16.5
2023-04-15T10:20:17.416Z,16.5
2023-04-15T10:21:19.305Z,16.5
2023-04-15T10:22:21.109Z,16.5
2023-04-15T10:23:22.947Z,16.4
2023-04-15T10:24:24.810Z,16.4
2023-04-15T10:25:26.759Z,16.5
2023-04-15T10:26:28.609Z,16.4
2023-04-15T10:27:30.363Z,16.4
2023-04-15T10:28:32.110Z,16.4
2023-04-15T10:29:33.971Z,16.4
2023-04-15T10:30:35.908Z,16.4
2023-04-15T10:31:37.945Z,16.3
2023-04-15T10:32:40.341Z,16.3
2023-04-15T10:33:42.174Z,16.3
2023-04-15T10:34:44.028Z,16.3
2023-04-15T10:35:45.978Z,16.4
2023-04-15T10:36:47.855Z,16.2
2023-04-15T10:37:49.698Z,16.2
2023-04-15T10:38:51.627Z,16.3
2023-04-15T10:39:53.487Z,16.2
2023-04-15T10:40:55.234Z,16.3
2023-04-15T10:41:57.087Z,16.2
2023-04-15T10:42:58.925Z,16.2
2023-04-15T10:44:01.173Z,16.2
2023-04-15T10:45:04.059Z,16.2
2023-04-15T10:46:06.055Z,16.1
2023-04-15T10:47:07.864Z,16.2
2023-04-15T10:48:09.875Z,16.1
2023-04-15T10:49:11.818Z,16.1
2023-04-15T10:50:13.633Z,16.1
2023-04-15T10:51:15.694Z,16.1
2023-04-15T10:52:17.665Z,16.1
2023-04-15T10:53:22.047Z,16.1
2023-04-15T10:54:23.884Z,16.1
2023-04-15T10:55:25.739Z,16.1
2023-04-15T10:56:27.585Z,16
2023-04-15T10:57:29.538Z,16
2023-04-15T10:58:31.400Z,16
2023-04-15T10:59:33.195Z,16
2023-04-15T11:00:35.000Z,16.1
2023-04-15T11:01:36.957Z,16
2023-04-15T11:02:39.466Z,16
2023-04-15T11:03:42.334Z,16
2023-04-15T11:04:44.758Z,16
2023-04-15T11:05:46.701Z,16
2023-04-15T11:06:48.550Z,15.9
2023-04-15T11:07:50.386Z,15.9
2023-04-15T11:08:52.243Z,16
2023-04-15T11:09:54.091Z,16
2023-04-15T11:10:55.943Z,16
2023-04-15T11:11:57.900Z,16
2023-04-15T11:12:59.864Z,15.9
2023-04-15T11:14:02.273Z,16
2023-04-15T11:15:08.052Z,15.9
2023-04-15T11:16:10.009Z,15.9
2023-04-15T11:17:12.157Z,15.9
2023-04-15T11:18:14.017Z,15.9
2023-04-15T11:19:15.869Z,15.9
2023-04-15T11:20:17.719Z,16
2023-04-15T11:21:19.577Z,15.9
2023-04-15T11:22:21.521Z,15.9
2023-04-15T11:23:23.497Z,15.9
2023-04-15T11:24:25.315Z,15.9
2023-04-15T11:25:27.186Z,16
2023-04-15T11:26:29.341Z,15.8
2023-04-15T11:27:31.160Z,15.9
2023-04-15T11:28:32.928Z,15.8
2023-04-15T11:29:34.677Z,15.8
2023-04-15T11:30:36.514Z,16
2023-04-15T11:31:38.424Z,15.8
2023-04-15T11:32:40.546Z,15.7
2023-04-15T11:33:42.684Z,15.8
2023-04-15T11:34:44.543Z,15.7
2023-04-15T11:35:46.396Z,15.9
2023-04-15T11:36:48.250Z,15.7
2023-04-15T11:37:50.093Z,15.7
2023-04-15T11:38:51.967Z,15.7
2023-04-15T11:39:53.799Z,15.7
2023-04-15T11:40:55.619Z,15.8
2023-04-15T11:41:57.593Z,15.7
2023-04-15T11:42:59.451Z,15.7
2023-04-15T11:44:01.655Z,15.7
2023-04-15T11:45:04.575Z,15.7
2023-04-15T11:46:06.552Z,15.7
2023-04-15T11:47:08.576Z,15.7
2023-04-15T11:48:10.459Z,15.7
2023-04-15T11:49:12.394Z,15.7
2023-04-15T11:50:14.231Z,15.7
2023-04-15T11:51:16.194Z,15.5
2023-04-15T11:52:17.988Z,15.6
2023-04-15T11:53:19.793Z,15.5
2023-04-15T11:54:21.662Z,15.5
2023-04-15T11:55:23.505Z,15.7
2023-04-15T11:56:25.338Z,15.5
2023-04-15T11:57:27.191Z,15.5
2023-04-15T11:58:28.989Z,15.5
2023-04-15T11:59:46.126Z,15.5
2023-04-15T12:00:48.102Z,15.6
2023-04-15T12:01:50.077Z,15.5
2023-04-15T12:02:52.363Z,15.5
2023-04-15T12:03:55.177Z,15.4
2023-04-15T12:04:57.494Z,15.4
2023-04-15T12:05:59.399Z,15.4
2023-04-15T12:07:01.248Z,15.4
2023-04-15T12:08:02.992Z,15.4
2023-04-15T12:09:04.936Z,15.4
2023-04-15T12:10:06.814Z,15.5
2023-04-15T12:11:08.535Z,15.4
2023-04-15T12:12:10.394Z,15.4
2023-04-15T12:13:12.244Z,15.4
2023-04-15T12:14:14.196Z,15.4
2023-04-15T12:15:16.050Z,15.7
2023-04-15T12:16:18.128Z,15.3
2023-04-15T12:17:20.276Z,15.4
2023-04-15T12:18:22.053Z,15.3
2023-04-15T12:19:23.950Z,15.3
2023-04-15T12:20:25.807Z,15.6
2023-04-15T12:21:27.753Z,15.3
2023-04-15T12:22:29.606Z,15.5
2023-04-15T12:23:31.557Z,15.7
2023-04-15T12:24:33.517Z,15
2023-04-15T12:25:35.400Z,15
2023-04-15T12:26:37.212Z,15.2
2023-04-15T12:27:39.069Z,16.1
2023-04-15T12:28:40.916Z,15.5
2023-04-15T12:29:42.874Z,15.6
2023-04-15T12:30:44.802Z,15.4
2023-04-15T12:31:46.813Z,15.4
2023-04-15T12:32:49.059Z,15.5
2023-04-15T12:33:51.098Z,15.3
2023-04-15T12:34:53.036Z,15.3
2023-04-15T12:35:54.896Z,15.3
2023-04-15T12:36:56.850Z,15.3
2023-04-15T12:37:58.787Z,15.3
2023-04-15T12:39:00.650Z,15.3
2023-04-15T12:40:02.624Z,15.3
2023-04-15T12:41:04.669Z,15.2
2023-04-15T12:42:06.504Z,15.2
2023-04-15T12:43:08.347Z,15.2
2023-04-15T12:44:10.201Z,15.3
2023-04-15T12:45:12.162Z,15.3
2023-04-15T12:46:14.121Z,15.2
2023-04-15T12:47:15.960Z,15.3
2023-04-15T12:48:17.906Z,15.2
2023-04-15T12:49:19.978Z,15.1
2023-04-15T12:50:21.832Z,15.1
2023-04-15T12:51:23.674Z,15.1
2023-04-15T12:52:25.637Z,15
2023-04-15T12:53:27.481Z,14.9
2023-04-15T12:54:29.324Z,14.9
2023-04-15T12:55:31.277Z,14.9
2023-04-15T12:56:33.137Z,14.9
2023-04-15T12:57:34.867Z,14.8
2023-04-15T12:58:36.722Z,14.8
2023-04-15T12:59:38.606Z,14.8
2023-04-15T13:00:40.413Z,14.8
2023-04-15T13:01:42.280Z,14.8
2023-04-15T13:02:44.554Z,14.8
2023-04-15T13:03:47.249Z,14.7
2023-04-15T13:04:49.733Z,14.8
2023-04-15T13:05:51.568Z,14.8
2023-04-15T13:06:53.270Z,14.7
2023-04-15T13:07:55.010Z,14.8
2023-04-15T13:08:59.179Z,14.7
2023-04-15T13:10:01.281Z,14.7
2023-04-15T13:11:03.223Z,14.7
2023-04-15T13:12:05.086Z,14.7
2023-04-15T13:13:06.926Z,14.7
2023-04-15T13:14:08.773Z,14.7
2023-04-15T13:15:10.624Z,14.7
2023-04-15T13:16:12.797Z,14.6
2023-04-15T13:17:14.634Z,14.6
2023-04-15T13:18:16.471Z,14.6
2023-04-15T13:19:18.327Z,14.6
2023-04-15T13:20:20.182Z,14.7
2023-04-15T13:21:22.131Z,14.6
2023-04-15T13:22:23.881Z,14.6
2023-04-15T13:23:25.731Z,14.6
2023-04-15T13:24:27.572Z,14.6
2023-04-15T13:25:29.329Z,14.6
2023-04-15T13:26:31.283Z,14.6
2023-04-15T13:27:33.257Z,14.6
2023-04-15T13:28:34.972Z,14.6
2023-04-15T13:29:36.843Z,14.5
2023-04-15T13:30:38.679Z,14.6
2023-04-15T13:31:40.559Z,14.6
2023-04-15T13:32:42.498Z,14.5
2023-04-15T13:33:44.439Z,14.5
2023-04-15T13:34:46.392Z,14.6
2023-04-15T13:35:48.242Z,14.5
2023-04-15T13:36:50.091Z,14.4
2023-04-15T13:37:51.936Z,14.4
2023-04-15T13:38:53.743Z,14.4
2023-04-15T13:39:55.631Z,14.5
2023-04-15T13:40:57.487Z,14.4
2023-04-15T13:41:59.649Z,14.4
2023-04-15T13:43:01.523Z,14.4
2023-04-15T13:44:04.028Z,14.4
2023-04-15T13:45:06.636Z,14.4
2023-04-15T13:46:08.643Z,14.4
2023-04-15T13:47:10.836Z,14.3
2023-04-15T13:48:12.686Z,14.3